createdAt,value
2017-06-21T00:00:11.299Z,74.72
2017-06-21T00:01:11.875Z,74.91
2017-06-21T00:02:12.456Z,74.62
2017-06-21T00:03:13.027Z,73.99
2017-06-21T00:04:13.603Z,74.95
2017-06-21T00:05:14.179Z,73.41
2017-06-21T00:06:14.756Z,72.45
2017-06-21T00:07:15.332Z,74.47
2017-06-21T00:08:15.908Z,73.86
2017-06-21T00:09:16.484Z,74.24
2017-06-21T00:10:17.060Z,74.33
2017-06-21T00:11:17.635Z,74.62
2017-06-21T00:12:18.211Z,74.72
2017-06-21T00:13:18.787Z,74.72
2017-06-21T00:14:19.362Z,74.52
2017-06-21T00:15:19.939Z,74.62
2017-06-21T00:16:20.514Z,74.72
2017-06-21T00:17:21.093Z,73.61
2017-06-21T00:18:21.678Z,75.37
2017-06-21T00:19:22.253Z,73.74
2017-06-21T00:20:22.831Z,72.20
2017-06-21T00:21:23.407Z,72.78
2017-06-21T00:22:23.986Z,74.69
2017-06-21T00:23:24.563Z,72.07
2017-06-21T00:24:25.138Z,73.38
2017-06-21T00:25:25.717Z,73.57
2017-06-21T00:26:26.292Z,75.33
2017-06-21T00:27:26.868Z,72.99
2017-06-21T00:28:27.444Z,74.24
2017-06-21T00:29:28.019Z,74.52
2017-06-21T00:30:28.595Z,73.95
2017-06-21T00:31:29.171Z,74.62
2017-06-21T00:32:29.747Z,75.29
2017-06-21T00:33:30.322Z,74.33
2017-06-21T00:34:30.899Z,74.68
2017-06-21T00:35:31.475Z,74.05
2017-06-21T00:36:32.051Z,73.38
2017-06-21T00:37:32.641Z,74.97
2017-06-21T00:38:33.216Z,76.06
2017-06-21T00:39:33.793Z,74.62
2017-06-21T00:40:34.369Z,73.95
2017-06-21T00:41:34.946Z,74.97
2017-06-21T00:42:35.521Z,75.83
2017-06-21T00:43:36.098Z,75.93
2017-06-21T00:44:36.674Z,75.45
2017-06-21T00:45:37.252Z,75.45
2017-06-21T00:46:37.826Z,75.35
2017-06-21T00:47:38.403Z,75.83
2017-06-21T00:48:38.979Z,77.78
2017-06-21T00:49:39.554Z,74.52
2017-06-21T00:50:42.884Z,74.72
2017-06-21T00:51:43.459Z,75.20
2017-06-21T00:52:44.037Z,75.20
2017-06-21T00:53:44.612Z,76.44
2017-06-21T00:54:45.188Z,75.29
2017-06-21T00:55:45.764Z,75.39
2017-06-21T00:56:46.339Z,74.87
2017-06-21T00:57:46.929Z,76.60
2017-06-21T00:58:47.516Z,75.98
2017-06-21T00:59:48.105Z,77.55
2017-06-21T01:00:48.682Z,76.31
2017-06-21T01:01:49.270Z,76.18
2017-06-21T01:02:49.846Z,77.33
2017-06-21T01:03:50.434Z,77.08
2017-06-21T01:04:51.011Z,76.31
2017-06-21T01:05:51.588Z,77.04
2017-06-21T01:06:52.166Z,76.65
2017-06-21T01:07:52.742Z,77.55
2017-06-21T01:08:53.319Z,76.89
2017-06-21T01:09:53.894Z,76.65
2017-06-21T01:10:54.472Z,77.80
2017-06-21T01:11:55.060Z,79.66
2017-06-21T01:12:55.636Z,77.04
2017-06-21T01:13:56.213Z,77.80
2017-06-21T01:14:56.789Z,78.57
2017-06-21T01:15:57.375Z,78.72
2017-06-21T01:16:57.964Z,78.34
2017-06-21T01:17:58.552Z,79.24
2017-06-21T01:18:59.126Z,78.86
2017-06-21T01:19:59.704Z,79.24
2017-06-21T01:21:00.284Z,77.42
2017-06-21T01:22:00.867Z,77.70
2017-06-21T01:23:01.455Z,78.38
2017-06-21T01:24:02.030Z,78.76
2017-06-21T01:25:02.607Z,77.70
2017-06-21T01:26:03.181Z,79.14
2017-06-21T01:27:03.759Z,78.76
2017-06-21T01:28:04.334Z,79.47
2017-06-21T01:29:04.912Z,77.84
2017-06-21T01:30:05.486Z,78.80
2017-06-21T01:31:06.063Z,77.42
2017-06-21T01:32:06.638Z,78.81
2017-06-21T01:33:07.225Z,80.35
2017-06-21T01:34:07.802Z,79.87
2017-06-21T01:35:08.376Z,79.77
2017-06-21T01:36:08.954Z,79.77
2017-06-21T01:37:09.528Z,82.11
2017-06-21T01:38:10.106Z,79.24
2017-06-21T01:39:10.681Z,79.62
2017-06-21T01:40:11.258Z,79.91
2017-06-21T01:41:11.832Z,78.86
2017-06-21T01:42:12.410Z,78.72
2017-06-21T01:43:12.984Z,79.29
2017-06-21T01:44:13.559Z,80.35
2017-06-21T01:45:14.135Z,79.49
2017-06-21T01:46:14.721Z,79.68
2017-06-21T01:47:15.298Z,80.44
2017-06-21T01:48:15.873Z,80.19
2017-06-21T01:49:16.449Z,80.00
2017-06-21T01:50:17.026Z,80.63
2017-06-21T01:51:17.602Z,81.15
2017-06-21T01:52:18.177Z,79.91
2017-06-21T01:53:18.752Z,79.77
2017-06-21T01:54:19.327Z,80.82
2017-06-21T01:55:19.903Z,80.82
2017-06-21T01:56:20.477Z,80.92
2017-06-21T01:57:21.053Z,79.77
2017-06-21T01:58:21.628Z,81.59
2017-06-21T01:59:22.204Z,81.78
2017-06-21T02:00:22.779Z,80.35
2017-06-21T02:01:23.354Z,81.78
2017-06-21T02:02:23.928Z,81.97
2017-06-21T02:03:24.515Z,81.30
2017-06-21T02:04:25.091Z,82.26
2017-06-21T02:05:25.666Z,81.49
2017-06-21T02:06:26.244Z,81.78
2017-06-21T02:07:26.829Z,81.34
2017-06-21T02:08:27.406Z,80.06
2017-06-21T02:09:27.982Z,81.40
2017-06-21T02:10:28.558Z,81.59
2017-06-21T02:11:29.135Z,80.06
2017-06-21T02:12:29.710Z,80.73
2017-06-21T02:13:30.287Z,80.73
2017-06-21T02:14:30.862Z,81.11
2017-06-21T02:15:31.439Z,81.49
2017-06-21T02:16:32.027Z,81.40
2017-06-21T02:17:32.602Z,81.88
2017-06-21T02:18:33.178Z,81.97
2017-06-21T02:19:33.753Z,81.74
2017-06-21T02:20:34.330Z,82.93
2017-06-21T02:21:34.904Z,81.97
2017-06-21T02:22:35.481Z,81.93
2017-06-21T02:23:36.056Z,81.88
2017-06-21T02:24:36.643Z,82.03
2017-06-21T02:25:37.220Z,83.98
2017-06-21T02:26:37.796Z,82.07
2017-06-21T02:27:38.374Z,81.68
2017-06-21T02:28:38.947Z,81.88
2017-06-21T02:29:39.524Z,81.97
2017-06-21T02:30:40.098Z,81.97
2017-06-21T02:31:40.676Z,83.03
2017-06-21T02:32:41.263Z,82.45
2017-06-21T02:33:41.838Z,82.31
2017-06-21T02:34:42.415Z,83.40
2017-06-21T02:35:42.989Z,83.69
2017-06-21T02:36:43.566Z,82.07
2017-06-21T02:37:44.140Z,83.89
2017-06-21T02:38:44.725Z,81.84
2017-06-21T02:39:45.300Z,83.46
2017-06-21T02:40:45.875Z,83.17
2017-06-21T02:41:46.450Z,83.08
2017-06-21T02:42:47.036Z,83.12
2017-06-21T02:43:47.612Z,82.07
2017-06-21T02:44:48.187Z,82.07
2017-06-21T02:45:48.763Z,83.12
2017-06-21T02:46:49.350Z,82.26
2017-06-21T02:47:49.926Z,83.22
2017-06-21T02:48:50.502Z,83.79
2017-06-21T02:49:51.077Z,82.70
2017-06-21T02:50:51.653Z,85.32
2017-06-21T02:51:52.227Z,82.64
2017-06-21T02:52:52.805Z,83.22
2017-06-21T02:53:53.382Z,84.03
2017-06-21T02:54:53.953Z,84.13
2017-06-21T02:55:54.532Z,84.32
2017-06-21T02:56:55.117Z,84.42
2017-06-21T02:57:55.693Z,85.28
2017-06-21T02:58:56.268Z,84.70
2017-06-21T02:59:56.844Z,84.32
2017-06-21T03:00:57.418Z,84.61
2017-06-21T03:01:57.995Z,86.18
2017-06-21T03:02:58.569Z,84.55
2017-06-21T03:03:59.146Z,84.59
2017-06-21T03:04:59.722Z,83.03
2017-06-21T03:06:00.297Z,81.68
2017-06-21T03:07:00.872Z,83.79
2017-06-21T03:08:01.447Z,83.40
2017-06-21T03:09:02.022Z,83.12
2017-06-21T03:10:02.598Z,83.27
2017-06-21T03:11:03.174Z,83.22
2017-06-21T03:12:03.749Z,82.79
2017-06-21T03:13:04.325Z,83.75
2017-06-21T03:14:04.901Z,83.94
2017-06-21T03:15:05.479Z,83.94
2017-06-21T03:16:06.055Z,83.94
2017-06-21T03:17:06.634Z,84.61
2017-06-21T03:18:07.221Z,83.65
2017-06-21T03:19:07.798Z,85.22
2017-06-21T03:20:08.375Z,84.03
2017-06-21T03:21:08.951Z,84.03
2017-06-21T03:22:09.540Z,85.47
2017-06-21T03:23:10.116Z,85.18
2017-06-21T03:24:10.692Z,85.47
2017-06-21T03:25:11.270Z,84.13
2017-06-21T03:26:11.845Z,83.75
2017-06-21T03:27:12.421Z,85.28
2017-06-21T03:28:12.998Z,85.09
2017-06-21T03:29:13.585Z,84.61
2017-06-21T03:30:14.163Z,86.04
2017-06-21T03:31:14.739Z,84.13
2017-06-21T03:32:15.315Z,85.09
2017-06-21T03:33:15.890Z,85.09
2017-06-21T03:34:16.466Z,84.52
2017-06-21T03:35:17.044Z,84.42
2017-06-21T03:36:17.616Z,84.42
2017-06-21T03:37:18.191Z,84.32
2017-06-21T03:38:18.767Z,85.09
2017-06-21T03:39:19.343Z,85.28
2017-06-21T03:40:19.919Z,84.46
2017-06-21T03:41:20.497Z,83.60
2017-06-21T03:42:21.085Z,83.03
2017-06-21T03:43:21.660Z,83.75
2017-06-21T03:44:22.236Z,86.18
2017-06-21T03:45:22.814Z,83.22
2017-06-21T03:46:23.392Z,84.36
2017-06-21T03:47:23.968Z,84.03
2017-06-21T03:48:24.547Z,86.08
2017-06-21T03:49:25.123Z,83.69
2017-06-21T03:50:25.700Z,84.59
2017-06-21T03:51:26.277Z,83.03
2017-06-21T03:52:26.854Z,84.12
2017-06-21T03:53:27.431Z,83.93
2017-06-21T03:54:28.009Z,83.26
2017-06-21T03:55:28.589Z,83.36
2017-06-21T03:56:29.165Z,83.12
2017-06-21T03:57:29.741Z,84.03
2017-06-21T03:58:30.317Z,85.66
2017-06-21T03:59:30.894Z,84.80
2017-06-21T04:00:31.471Z,85.85
2017-06-21T04:01:32.049Z,85.61
2017-06-21T04:02:32.628Z,84.46
2017-06-21T04:03:33.204Z,83.89
2017-06-21T04:04:33.783Z,84.03
2017-06-21T04:05:34.370Z,84.46
2017-06-21T04:06:34.958Z,84.70
2017-06-21T04:07:35.535Z,85.66
2017-06-21T04:08:36.113Z,87.14
2017-06-21T04:09:36.691Z,85.80
2017-06-21T04:10:37.272Z,83.64
2017-06-21T04:11:37.845Z,83.03
2017-06-21T04:12:38.421Z,83.69
2017-06-21T04:13:39.000Z,85.03
2017-06-21T04:14:39.588Z,85.08
2017-06-21T04:15:40.165Z,83.12
2017-06-21T04:16:40.743Z,85.09
2017-06-21T04:17:41.320Z,85.18
2017-06-21T04:18:41.900Z,85.94
2017-06-21T04:19:42.479Z,84.94
2017-06-21T04:20:43.058Z,84.36
2017-06-21T04:21:43.637Z,84.17
2017-06-21T04:22:44.215Z,84.80
2017-06-21T04:23:44.794Z,85.09
2017-06-21T04:24:45.372Z,85.09
2017-06-21T04:25:45.952Z,85.18
2017-06-21T04:26:46.531Z,85.47
2017-06-21T04:27:47.107Z,85.38
2017-06-21T04:28:47.687Z,85.47
2017-06-21T04:29:48.266Z,85.09
2017-06-21T04:30:48.856Z,84.89
2017-06-21T04:31:49.435Z,84.99
2017-06-21T04:32:50.014Z,85.38
2017-06-21T04:33:50.592Z,84.84
2017-06-21T04:34:51.171Z,84.99
2017-06-21T04:35:51.748Z,85.75
2017-06-21T04:36:52.329Z,85.38
2017-06-21T04:37:52.905Z,85.38
2017-06-21T04:38:53.484Z,85.09
2017-06-21T04:39:54.062Z,84.89
2017-06-21T04:40:54.639Z,84.70
2017-06-21T04:41:55.219Z,85.13
2017-06-21T04:42:55.797Z,84.17
2017-06-21T04:43:56.376Z,85.32
2017-06-21T04:44:56.954Z,83.69
2017-06-21T04:45:57.532Z,83.50
2017-06-21T04:46:58.145Z,83.98
2017-06-21T04:47:58.691Z,83.60
2017-06-21T04:48:59.269Z,83.50
2017-06-21T04:49:59.848Z,82.93
2017-06-21T04:51:00.425Z,82.35
2017-06-21T04:52:01.006Z,83.31
2017-06-21T04:53:01.583Z,83.22
2017-06-21T04:54:02.163Z,83.45
2017-06-21T04:55:02.740Z,82.11
2017-06-21T04:56:03.317Z,82.45
2017-06-21T04:57:03.906Z,82.35
2017-06-21T04:58:04.484Z,82.30
2017-06-21T04:59:05.062Z,81.92
2017-06-21T05:00:05.641Z,81.44
2017-06-21T05:01:06.221Z,81.34
2017-06-21T05:02:06.800Z,80.77
2017-06-21T05:03:07.391Z,82.01
2017-06-21T05:04:07.980Z,81.68
2017-06-21T05:05:08.559Z,81.73
2017-06-21T05:06:09.137Z,80.96
2017-06-21T05:07:09.715Z,80.77
2017-06-21T05:08:10.294Z,81.59
2017-06-21T05:09:10.871Z,81.59
2017-06-21T05:10:11.451Z,81.92
2017-06-21T05:11:12.028Z,81.15
2017-06-21T05:12:12.606Z,80.14
2017-06-21T05:13:13.185Z,79.75
2017-06-21T05:14:13.763Z,80.19
2017-06-21T05:15:14.342Z,80.14
2017-06-21T05:16:14.921Z,80.04
2017-06-21T05:17:15.498Z,80.43
2017-06-21T05:18:16.089Z,79.70
2017-06-21T05:19:16.667Z,79.37
2017-06-21T05:20:17.245Z,78.93
2017-06-21T05:21:17.826Z,78.80
2017-06-21T05:22:18.403Z,79.57
2017-06-21T05:23:18.981Z,79.95
2017-06-21T05:24:19.560Z,78.93
2017-06-21T05:25:20.139Z,78.74
2017-06-21T05:26:20.730Z,78.36
2017-06-21T05:27:21.309Z,78.89
2017-06-21T05:28:21.888Z,78.45
2017-06-21T05:29:22.465Z,77.97
2017-06-21T05:30:23.044Z,77.50
2017-06-21T05:31:23.623Z,77.75
2017-06-21T05:32:24.204Z,77.59
2017-06-21T05:33:24.781Z,76.48
2017-06-21T05:34:25.360Z,74.95
2017-06-21T05:35:25.939Z,76.35
2017-06-21T05:36:26.516Z,76.48
2017-06-21T05:37:27.097Z,75.04
2017-06-21T05:38:27.675Z,74.37
2017-06-21T05:39:28.254Z,74.57
2017-06-21T05:40:28.833Z,74.95
2017-06-21T05:41:29.411Z,74.60
2017-06-21T05:42:29.993Z,74.02
2017-06-21T05:43:30.574Z,74.37
2017-06-21T05:44:31.150Z,75.39
2017-06-21T05:45:31.729Z,75.68
2017-06-21T05:46:32.307Z,76.82
2017-06-21T05:47:32.888Z,75.23
2017-06-21T05:48:33.467Z,74.52
2017-06-21T05:49:34.047Z,74.91
2017-06-21T05:50:34.628Z,76.54
2017-06-21T05:51:35.217Z,75.68
2017-06-21T05:52:35.796Z,74.82
2017-06-21T05:53:36.375Z,75.14
2017-06-21T05:54:36.954Z,74.66
2017-06-21T05:55:37.534Z,75.52
2017-06-21T05:56:38.114Z,75.04
2017-06-21T05:57:38.692Z,74.31
2017-06-21T05:58:39.270Z,74.27
2017-06-21T05:59:39.849Z,75.04
2017-06-21T06:00:40.427Z,74.91
2017-06-21T06:01:41.006Z,74.76
2017-06-21T06:02:41.588Z,74.60
2017-06-21T06:03:42.165Z,73.97
2017-06-21T06:04:42.744Z,72.88
2017-06-21T06:05:43.322Z,73.45
2017-06-21T06:06:43.902Z,73.45
2017-06-21T06:07:44.485Z,72.78
2017-06-21T06:08:45.060Z,73.32
2017-06-21T06:09:45.641Z,74.31
2017-06-21T06:10:46.231Z,72.63
2017-06-21T06:11:46.809Z,72.49
2017-06-21T06:12:47.389Z,73.45
2017-06-21T06:13:47.967Z,72.68
2017-06-21T06:14:48.548Z,73.00
2017-06-21T06:15:49.128Z,73.30
2017-06-21T06:16:49.707Z,72.78
2017-06-21T06:17:50.287Z,73.26
2017-06-21T06:18:50.866Z,72.88
2017-06-21T06:19:51.444Z,72.91
2017-06-21T06:20:52.025Z,71.92
2017-06-21T06:21:52.605Z,71.72
2017-06-21T06:22:53.185Z,71.63
2017-06-21T06:23:53.764Z,72.63
2017-06-21T06:24:54.343Z,71.47
2017-06-21T06:25:54.924Z,70.96
2017-06-21T06:26:55.503Z,73.07
2017-06-21T06:27:56.084Z,72.64
2017-06-21T06:28:56.663Z,72.68
2017-06-21T06:29:57.242Z,73.07
2017-06-21T06:30:57.823Z,71.37
2017-06-21T06:31:58.403Z,70.61
2017-06-21T06:32:58.987Z,72.05
2017-06-21T06:33:59.564Z,70.99
2017-06-21T06:35:00.143Z,71.37
2017-06-21T06:36:00.734Z,71.25
2017-06-21T06:37:01.313Z,71.72
2017-06-21T06:38:01.892Z,72.05
2017-06-21T06:39:02.473Z,71.28
2017-06-21T06:40:03.051Z,70.51
2017-06-21T06:41:03.632Z,70.36
2017-06-21T06:42:04.216Z,69.20
2017-06-21T06:43:04.790Z,68.69
2017-06-21T06:44:05.372Z,69.65
2017-06-21T06:45:05.952Z,70.23
2017-06-21T06:46:06.534Z,71.34
2017-06-21T06:47:07.113Z,70.23
2017-06-21T06:48:07.692Z,70.17
2017-06-21T06:49:08.275Z,68.66
2017-06-21T06:50:08.853Z,67.13
2017-06-21T06:51:09.435Z,67.76
2017-06-21T06:52:10.014Z,67.99
2017-06-21T06:53:10.604Z,68.44
2017-06-21T06:54:11.184Z,68.53
2017-06-21T06:55:11.763Z,69.01
2017-06-21T06:56:12.343Z,68.18
2017-06-21T06:57:12.925Z,67.64
2017-06-21T06:58:13.505Z,66.74
2017-06-21T06:59:14.086Z,68.24
2017-06-21T07:00:14.664Z,68.44
2017-06-21T07:01:15.244Z,68.66
2017-06-21T07:02:15.837Z,68.34
2017-06-21T07:03:16.430Z,68.57
2017-06-21T07:04:17.009Z,67.70
2017-06-21T07:05:17.589Z,67.90
2017-06-21T07:06:18.166Z,66.74
2017-06-21T07:07:18.746Z,66.16
2017-06-21T07:08:19.327Z,66.30
2017-06-21T07:09:19.906Z,66.61
2017-06-21T07:10:20.488Z,65.88
2017-06-21T07:11:21.068Z,64.89
2017-06-21T07:12:21.652Z,64.43
2017-06-21T07:13:22.229Z,63.67
2017-06-21T07:14:22.810Z,63.12
2017-06-21T07:15:23.392Z,62.64
2017-06-21T07:16:23.971Z,63.02
2017-06-21T07:17:24.550Z,63.38
2017-06-21T07:18:25.131Z,63.18
2017-06-21T07:19:25.712Z,63.76
2017-06-21T07:20:26.294Z,64.05
2017-06-21T07:21:26.873Z,62.99
2017-06-21T07:22:27.453Z,63.25
2017-06-21T07:23:28.032Z,63.32
2017-06-21T07:24:28.613Z,64.73
2017-06-21T07:25:29.195Z,64.25
2017-06-21T07:26:29.775Z,62.71
2017-06-21T07:27:30.356Z,64.28
2017-06-21T07:28:30.938Z,65.14
2017-06-21T07:29:31.516Z,65.01
2017-06-21T07:30:32.099Z,63.18
2017-06-21T07:31:32.680Z,64.15
2017-06-21T07:32:33.262Z,63.51
2017-06-21T07:33:33.855Z,62.99
2017-06-21T07:34:34.436Z,62.83
2017-06-21T07:35:35.018Z,61.39
2017-06-21T07:36:35.598Z,61.71
2017-06-21T07:37:36.179Z,61.22
2017-06-21T07:38:36.761Z,61.22
2017-06-21T07:39:37.342Z,60.04
2017-06-21T07:40:37.923Z,60.14
2017-06-21T07:41:38.504Z,62.71
2017-06-21T07:42:39.084Z,62.80
2017-06-21T07:43:39.666Z,61.65
2017-06-21T07:44:40.246Z,62.54
2017-06-21T07:45:40.829Z,60.46
2017-06-21T07:46:41.409Z,59.75
2017-06-21T07:47:41.988Z,60.62
2017-06-21T07:48:42.570Z,61.90
2017-06-21T07:49:43.151Z,60.75
2017-06-21T07:50:43.733Z,60.75
2017-06-21T07:51:44.313Z,59.81
2017-06-21T07:52:44.895Z,59.62
2017-06-21T07:53:45.475Z,59.33
2017-06-21T07:54:46.058Z,59.97
2017-06-21T07:55:46.641Z,60.36
2017-06-21T07:56:47.221Z,60.20
2017-06-21T07:57:47.802Z,59.81
2017-06-21T07:58:48.383Z,58.75
2017-06-21T07:59:48.965Z,59.07
2017-06-21T08:00:49.547Z,58.85
2017-06-21T08:01:50.131Z,59.69
2017-06-21T08:02:50.710Z,60.46
2017-06-21T08:03:51.290Z,60.42
2017-06-21T08:04:51.871Z,60.46
2017-06-21T08:05:52.454Z,59.49
2017-06-21T08:06:53.036Z,60.49
2017-06-21T08:07:53.619Z,59.20
2017-06-21T08:08:54.200Z,59.78
2017-06-21T08:09:54.780Z,60.17
2017-06-21T08:10:55.363Z,59.20
2017-06-21T08:11:55.945Z,59.69
2017-06-21T08:12:56.528Z,59.49
2017-06-21T08:13:57.109Z,58.63
2017-06-21T08:14:57.690Z,60.49
2017-06-21T08:15:58.284Z,58.20
2017-06-21T08:16:58.878Z,56.57
2017-06-21T08:17:59.459Z,58.01
2017-06-21T08:19:00.051Z,58.27
2017-06-21T08:20:00.636Z,57.82
2017-06-21T08:21:01.216Z,57.89
2017-06-21T08:22:01.809Z,58.23
2017-06-21T08:23:02.393Z,56.72
2017-06-21T08:24:02.973Z,55.18
2017-06-21T08:25:03.554Z,55.56
2017-06-21T08:26:04.137Z,55.20
2017-06-21T08:27:04.717Z,55.46
2017-06-21T08:28:05.302Z,55.94
2017-06-21T08:29:05.882Z,55.99
2017-06-21T08:30:06.463Z,56.37
2017-06-21T08:31:07.044Z,56.76
2017-06-21T08:32:07.637Z,56.88
2017-06-21T08:33:08.218Z,55.18
2017-06-21T08:34:08.800Z,55.01
2017-06-21T08:35:09.383Z,55.40
2017-06-21T08:36:09.976Z,54.91
2017-06-21T08:37:10.558Z,54.79
2017-06-21T08:38:11.140Z,55.63
2017-06-21T08:39:11.733Z,55.51
2017-06-21T08:40:12.317Z,55.99
2017-06-21T08:41:12.899Z,57.14
2017-06-21T08:42:13.482Z,57.24
2017-06-21T08:43:14.064Z,57.05
2017-06-21T08:44:14.646Z,55.99
2017-06-21T08:45:15.229Z,57.72
2017-06-21T08:46:15.812Z,57.14
2017-06-21T08:47:16.406Z,57.07
2017-06-21T08:48:16.989Z,56.21
2017-06-21T08:49:17.572Z,56.40
2017-06-21T08:50:18.153Z,56.01
2017-06-21T08:51:18.768Z,55.76
2017-06-21T08:52:19.317Z,55.36
2017-06-21T08:53:19.901Z,54.72
2017-06-21T08:54:20.482Z,54.50
2017-06-21T08:55:21.064Z,55.44
2017-06-21T08:56:21.646Z,55.82
2017-06-21T08:57:22.228Z,56.27
2017-06-21T08:58:22.821Z,56.09
2017-06-21T08:59:23.402Z,57.17
2017-06-21T09:00:23.987Z,56.59
2017-06-21T09:01:24.568Z,56.16
2017-06-21T09:02:25.149Z,55.49
2017-06-21T09:03:25.733Z,54.91
2017-06-21T09:04:26.313Z,54.91
2017-06-21T09:05:26.910Z,54.79
2017-06-21T09:06:27.491Z,54.53
2017-06-21T09:07:28.087Z,54.27
2017-06-21T09:08:28.682Z,54.33
2017-06-21T09:09:29.262Z,53.97
2017-06-21T09:10:29.846Z,53.93
2017-06-21T09:11:30.427Z,52.19
2017-06-21T09:12:31.021Z,52.39
2017-06-21T09:13:31.604Z,52.77
2017-06-21T09:14:32.185Z,51.03
2017-06-21T09:15:32.779Z,52.07
2017-06-21T09:16:33.361Z,51.87
2017-06-21T09:17:33.943Z,51.93
2017-06-21T09:18:34.526Z,51.08
2017-06-21T09:19:35.110Z,51.28
2017-06-21T09:20:35.692Z,50.79
2017-06-21T09:21:36.275Z,50.02
2017-06-21T09:22:36.857Z,50.57
2017-06-21T09:23:37.451Z,51.10
2017-06-21T09:24:38.032Z,51.87
2017-06-21T09:25:38.614Z,53.03
2017-06-21T09:26:39.198Z,52.33
2017-06-21T09:27:39.782Z,53.06
2017-06-21T09:28:40.364Z,52.41
2017-06-21T09:29:40.947Z,52.14
2017-06-21T09:30:41.529Z,51.37
2017-06-21T09:31:42.111Z,51.88
2017-06-21T09:32:42.695Z,49.85
2017-06-21T09:33:43.277Z,49.07
2017-06-21T09:34:43.863Z,49.73
2017-06-21T09:35:44.444Z,50.79
2017-06-21T09:36:45.026Z,49.99
2017-06-21T09:37:45.621Z,51.01
2017-06-21T09:38:46.204Z,53.13
2017-06-21T09:39:46.787Z,53.11
2017-06-21T09:40:47.371Z,51.98
2017-06-21T09:41:47.953Z,48.95
2017-06-21T09:42:48.537Z,49.63
2017-06-21T09:43:49.119Z,50.21
2017-06-21T09:44:49.701Z,49.82
2017-06-21T09:45:50.285Z,50.24
2017-06-21T09:46:50.868Z,49.75
2017-06-21T09:47:51.452Z,48.52
2017-06-21T09:48:52.034Z,49.10
2017-06-21T09:49:52.616Z,49.49
2017-06-21T09:50:53.201Z,49.22
2017-06-21T09:51:53.785Z,49.63
2017-06-21T09:52:54.369Z,49.60
2017-06-21T09:53:54.950Z,50.52
2017-06-21T09:54:55.532Z,49.27
2017-06-21T09:55:56.116Z,49.37
2017-06-21T09:56:56.701Z,48.90
2017-06-21T09:57:57.282Z,48.66
2017-06-21T09:58:57.865Z,48.69
2017-06-21T09:59:58.447Z,48.13
2017-06-21T10:00:59.029Z,48.66
2017-06-21T10:01:59.613Z,49.27
2017-06-21T10:03:00.197Z,48.42
2017-06-21T10:04:00.780Z,48.81
2017-06-21T10:05:01.377Z,48.11
2017-06-21T10:06:01.961Z,50.24
2017-06-21T10:07:02.557Z,48.22
2017-06-21T10:08:03.138Z,48.22
2017-06-21T10:09:03.721Z,48.11
2017-06-21T10:10:04.304Z,48.74
2017-06-21T10:11:04.888Z,48.64
2017-06-21T10:12:05.472Z,48.27
2017-06-21T10:13:06.054Z,47.20
2017-06-21T10:14:06.638Z,46.65
2017-06-21T10:15:07.222Z,47.13
2017-06-21T10:16:07.805Z,47.23
2017-06-21T10:17:08.390Z,46.43
2017-06-21T10:18:08.974Z,45.92
2017-06-21T10:19:09.556Z,45.81
2017-06-21T10:20:10.142Z,46.58
2017-06-21T10:21:10.724Z,47.55
2017-06-21T10:22:11.309Z,49.17
2017-06-21T10:23:11.892Z,48.61
2017-06-21T10:24:12.488Z,48.52
2017-06-21T10:25:13.070Z,48.22
2017-06-21T10:26:13.651Z,47.96
2017-06-21T10:27:14.236Z,48.90
2017-06-21T10:28:14.821Z,48.54
2017-06-21T10:29:15.403Z,47.96
2017-06-21T10:30:15.986Z,47.74
2017-06-21T10:31:16.568Z,48.22
2017-06-21T10:32:17.150Z,49.15
2017-06-21T10:33:17.744Z,50.65
2017-06-21T10:34:18.329Z,48.30
2017-06-21T10:35:18.912Z,49.07
2017-06-21T10:36:19.497Z,49.12
2017-06-21T10:37:20.080Z,47.47
2017-06-21T10:38:20.665Z,47.47
2017-06-21T10:39:21.249Z,46.99
2017-06-21T10:40:21.832Z,46.80
2017-06-21T10:41:22.415Z,47.74
2017-06-21T10:42:23.010Z,47.45
2017-06-21T10:43:23.593Z,47.19
2017-06-21T10:44:24.177Z,47.89
2017-06-21T10:45:24.762Z,47.02
2017-06-21T10:46:25.346Z,46.82
2017-06-21T10:47:25.929Z,46.77
2017-06-21T10:48:26.512Z,45.17
2017-06-21T10:49:27.095Z,46.09
2017-06-21T10:50:27.681Z,47.28
2017-06-21T10:51:28.276Z,47.40
2017-06-21T10:52:28.860Z,46.33
2017-06-21T10:53:29.443Z,46.14
2017-06-21T10:54:30.027Z,46.77
2017-06-21T10:55:30.610Z,46.43
2017-06-21T10:56:31.194Z,45.73
2017-06-21T10:57:31.789Z,47.26
2017-06-21T10:58:32.373Z,47.30
2017-06-21T10:59:32.956Z,47.03
2017-06-21T11:00:33.538Z,45.31
2017-06-21T11:01:34.122Z,45.27
2017-06-21T11:02:34.715Z,45.85
2017-06-21T11:03:35.298Z,45.68
2017-06-21T11:04:35.882Z,45.58
2017-06-21T11:05:36.469Z,44.85
2017-06-21T11:06:37.054Z,44.64
2017-06-21T11:07:37.634Z,45.54
2017-06-21T11:08:38.220Z,45.92
2017-06-21T11:09:38.803Z,46.67
2017-06-21T11:10:39.388Z,47.57
2017-06-21T11:11:39.972Z,47.50
2017-06-21T11:12:40.554Z,45.47
2017-06-21T11:13:41.140Z,46.04
2017-06-21T11:14:41.724Z,46.72
2017-06-21T11:15:42.307Z,46.67
2017-06-21T11:16:42.889Z,45.72
2017-06-21T11:17:43.472Z,44.19
2017-06-21T11:18:44.056Z,44.44
2017-06-21T11:19:44.638Z,45.20
2017-06-21T11:20:45.220Z,44.98
2017-06-21T11:21:45.802Z,45.56
2017-06-21T11:22:46.384Z,45.65
2017-06-21T11:23:46.968Z,45.58
2017-06-21T11:24:47.552Z,45.87
2017-06-21T11:25:48.136Z,46.14
2017-06-21T11:26:48.720Z,45.85
2017-06-21T11:27:49.315Z,45.47
2017-06-21T11:28:49.898Z,45.58
2017-06-21T11:29:50.483Z,45.00
2017-06-21T11:30:51.069Z,44.32
2017-06-21T11:31:51.652Z,44.83
2017-06-21T11:32:52.246Z,44.51
2017-06-21T11:33:52.830Z,45.47
2017-06-21T11:34:53.412Z,45.61
2017-06-21T11:35:53.995Z,43.76
2017-06-21T11:36:54.580Z,44.61
2017-06-21T11:37:55.165Z,44.86
2017-06-21T11:38:55.748Z,44.98
2017-06-21T11:39:56.332Z,45.29
2017-06-21T11:40:56.925Z,44.95
2017-06-21T11:41:57.511Z,42.54
2017-06-21T11:42:58.095Z,43.27
2017-06-21T11:43:58.681Z,44.83
2017-06-21T11:44:59.263Z,44.42
2017-06-21T11:45:59.846Z,45.51
2017-06-21T11:47:00.430Z,44.42
2017-06-21T11:48:01.015Z,45.12
2017-06-21T11:49:01.599Z,45.20
2017-06-21T11:50:02.183Z,45.29
2017-06-21T11:51:03.016Z,44.90
2017-06-21T11:52:03.599Z,44.78
2017-06-21T11:53:04.181Z,45.34
2017-06-21T11:54:04.767Z,45.78
2017-06-21T11:55:05.351Z,45.00
2017-06-21T11:56:05.934Z,45.29
2017-06-21T11:57:06.531Z,45.07
2017-06-21T11:58:07.114Z,45.68
2017-06-21T11:59:07.698Z,44.85
2017-06-21T12:00:08.283Z,44.90
2017-06-21T12:01:08.868Z,45.65
2017-06-21T12:02:09.451Z,43.71
2017-06-21T12:03:10.035Z,43.86
2017-06-21T12:04:10.621Z,44.15
2017-06-21T12:05:11.205Z,43.86
2017-06-21T12:06:11.789Z,44.75
2017-06-21T12:07:12.372Z,43.95
2017-06-21T12:08:12.957Z,43.30
2017-06-21T12:09:13.541Z,42.33
2017-06-21T12:10:14.125Z,43.61
2017-06-21T12:11:14.709Z,42.58
2017-06-21T12:12:15.293Z,41.98
2017-06-21T12:13:15.879Z,42.87
2017-06-21T12:14:16.474Z,42.08
2017-06-21T12:15:17.058Z,43.95
2017-06-21T12:16:17.642Z,43.86
2017-06-21T12:17:18.226Z,44.12
2017-06-21T12:18:18.809Z,42.49
2017-06-21T12:19:19.396Z,42.21
2017-06-21T12:20:19.983Z,41.34
2017-06-21T12:21:20.574Z,40.97
2017-06-21T12:22:21.160Z,40.85
2017-06-21T12:23:21.744Z,42.14
2017-06-21T12:24:22.327Z,42.08
2017-06-21T12:25:22.913Z,42.15
2017-06-21T12:26:23.497Z,43.82
2017-06-21T12:27:24.081Z,42.18
2017-06-21T12:28:24.665Z,43.30
2017-06-21T12:29:25.249Z,43.20
2017-06-21T12:30:25.834Z,44.15
2017-06-21T12:31:26.418Z,43.90
2017-06-21T12:32:27.004Z,43.05
2017-06-21T12:33:27.587Z,44.04
2017-06-21T12:34:28.173Z,43.46
2017-06-21T12:35:28.757Z,42.33
2017-06-21T12:36:29.341Z,41.63
2017-06-21T12:37:29.927Z,42.58
2017-06-21T12:38:30.522Z,42.11
2017-06-21T12:39:31.108Z,41.30
2017-06-21T12:40:31.693Z,42.61
2017-06-21T12:41:32.289Z,43.20
2017-06-21T12:42:32.873Z,43.98
2017-06-21T12:43:33.457Z,43.88
2017-06-21T12:44:34.041Z,43.92
2017-06-21T12:45:34.626Z,42.49
2017-06-21T12:46:35.211Z,42.14
2017-06-21T12:47:35.795Z,41.80
2017-06-21T12:48:36.379Z,42.29
2017-06-21T12:49:36.962Z,42.50
2017-06-21T12:50:37.549Z,42.06
2017-06-21T12:51:38.133Z,40.81
2017-06-21T12:52:38.718Z,40.01
2017-06-21T12:53:39.304Z,40.58
2017-06-21T12:54:39.887Z,41.24
2017-06-21T12:55:40.473Z,42.29
2017-06-21T12:56:41.056Z,42.00
2017-06-21T12:57:41.640Z,43.44
2017-06-21T12:58:42.226Z,43.16
2017-06-21T12:59:42.811Z,42.50